sensor_id;sensor_type;location;lat;lon;timestamp;P1;durP1;ratioP1;P2;durP2;ratioP2
21046;SDS011;10682;50.874;3.656;2023-04-07T00:01:39;8.97;;;3.40;;
21046;SDS011;10682;50.874;3.656;2023-04-07T00:04:07;10.57;;;3.80;;
21046;SDS011;10682;50.874;3.656;2023-04-07T00:06:35;9.30;;;3.70;;
21046;SDS011;10682;50.874;3.656;2023-04-07T00:09:02;7.20;;;3.23;;
21046;SDS011;10682;50.874;3.656;2023-04-07T00:11:29;8.20;;;3.37;;
21046;SDS011;10682;50.874;3.656;2023-04-07T00:13:56;6.60;;;2.73;;
21046;SDS011;10682;50.874;3.656;2023-04-07T00:16:23;9.43;;;3.40;;
21046;SDS011;10682;50.874;3.656;2023-04-07T00:18:50;5.43;;;2.63;;
21046;SDS011;10682;50.874;3.656;2023-04-07T00:21:17;8.73;;;3.10;;
21046;SDS011;10682;50.874;3.656;2023-04-07T00:23:44;7.03;;;2.90;;
21046;SDS011;10682;50.874;3.656;2023-04-07T00:26:12;9.63;;;3.10;;
21046;SDS011;10682;50.874;3.656;2023-04-07T00:28:39;9.60;;;3.27;;
21046;SDS011;10682;50.874;3.656;2023-04-07T00:31:07;7.47;;;3.00;;
21046;SDS011;10682;50.874;3.656;2023-04-07T00:33:34;11.03;;;3.43;;
21046;SDS011;10682;50.874;3.656;2023-04-07T00:36:01;11.27;;;4.40;;
21046;SDS011;10682;50.874;3.656;2023-04-07T00:38:28;9.53;;;4.10;;
21046;SDS011;10682;50.874;3.656;2023-04-07T00:40:56;8.27;;;4.73;;
21046;SDS011;10682;50.874;3.656;2023-04-07T00:43:25;10.77;;;4.60;;
21046;SDS011;10682;50.874;3.656;2023-04-07T00:45:53;8.33;;;4.70;;
21046;SDS011;10682;50.874;3.656;2023-04-07T00:48:21;13.27;;;5.30;;
21046;SDS011;10682;50.874;3.656;2023-04-07T00:50:49;12.47;;;4.93;;
21046;SDS011;10682;50.874;3.656;2023-04-07T00:53:16;10.50;;;5.37;;
21046;SDS011;10682;50.874;3.656;2023-04-07T00:55:43;10.80;;;5.47;;
21046;SDS011;10682;50.874;3.656;2023-04-07T00:58:10;14.90;;;5.60;;
21046;SDS011;10682;50.874;3.656;2023-04-07T01:01:01;17.07;;;5.70;;
21046;SDS011;10682;50.874;3.656;2023-04-07T01:04:08;8.70;;;5.00;;
21046;SDS011;10682;50.874;3.656;2023-04-07T01:06:46;11.03;;;5.10;;
21046;SDS011;10682;50.874;3.656;2023-04-07T01:09:20;13.13;;;5.20;;
21046;SDS011;10682;50.874;3.656;2023-04-07T01:12:17;11.43;;;5.23;;
21046;SDS011;10682;50.874;3.656;2023-04-07T01:15:09;10.43;;;5.10;;
21046;SDS011;10682;50.874;3.656;2023-04-07T01:17:39;9.30;;;4.60;;
21046;SDS011;10682;50.874;3.656;2023-04-07T01:20:13;7.70;;;4.40;;
21046;SDS011;10682;50.874;3.656;2023-04-07T01:22:48;9.03;;;4.10;;
21046;SDS011;10682;50.874;3.656;2023-04-07T01:31:30;7.23;;;3.63;;
21046;SDS011;10682;50.874;3.656;2023-04-07T01:33:58;11.13;;;3.73;;
21046;SDS011;10682;50.874;3.656;2023-04-07T01:36:27;9.07;;;4.20;;
21046;SDS011;10682;50.874;3.656;2023-04-07T01:38:57;9.77;;;3.60;;
21046;SDS011;10682;50.874;3.656;2023-04-07T01:41:25;9.20;;;3.80;;
21046;SDS011;10682;50.874;3.656;2023-04-07T01:43:53;6.50;;;3.50;;
21046;SDS011;10682;50.874;3.656;2023-04-07T01:46:22;7.30;;;3.57;;
21046;SDS011;10682;50.874;3.656;2023-04-07T01:48:49;7.90;;;3.47;;
21046;SDS011;10682;50.874;3.656;2023-04-07T01:51:17;8.50;;;3.60;;
21046;SDS011;10682;50.874;3.656;2023-04-07T01:53:47;7.17;;;3.73;;
21046;SDS011;10682;50.874;3.656;2023-04-07T01:56:15;6.23;;;3.70;;
21046;SDS011;10682;50.874;3.656;2023-04-07T01:58:42;8.13;;;3.37;;
21046;SDS011;10682;50.874;3.656;2023-04-07T02:01:09;8.10;;;3.90;;
21046;SDS011;10682;50.874;3.656;2023-04-07T02:06:17;9.33;;;3.00;;
21046;SDS011;10682;50.874;3.656;2023-04-07T02:08:50;6.17;;;2.50;;
21046;SDS011;10682;50.874;3.656;2023-04-07T02:11:22;10.20;;;2.90;;
21046;SDS011;10682;50.874;3.656;2023-04-07T02:13:53;6.63;;;2.60;;
21046;SDS011;10682;50.874;3.656;2023-04-07T02:16:21;8.03;;;3.17;;
21046;SDS011;10682;50.874;3.656;2023-04-07T02:18:48;8.90;;;3.60;;
21046;SDS011;10682;50.874;3.656;2023-04-07T02:21:16;10.03;;;3.90;;
21046;SDS011;10682;50.874;3.656;2023-04-07T02:23:45;7.60;;;4.27;;
21046;SDS011;10682;50.874;3.656;2023-04-07T02:26:12;9.10;;;4.47;;
21046;SDS011;10682;50.874;3.656;2023-04-07T02:28:39;9.13;;;4.67;;
21046;SDS011;10682;50.874;3.656;2023-04-07T02:31:06;9.07;;;4.90;;
21046;SDS011;10682;50.874;3.656;2023-04-07T02:33:33;10.63;;;4.80;;
21046;SDS011;10682;50.874;3.656;2023-04-07T02:36:00;11.67;;;5.27;;
21046;SDS011;10682;50.874;3.656;2023-04-07T02:38:27;14.53;;;6.33;;
21046;SDS011;10682;50.874;3.656;2023-04-07T02:40:54;10.97;;;5.70;;
21046;SDS011;10682;50.874;3.656;2023-04-07T02:43:22;9.60;;;5.77;;
21046;SDS011;10682;50.874;3.656;2023-04-07T02:45:50;16.10;;;7.10;;
21046;SDS011;10682;50.874;3.656;2023-04-07T02:48:17;12.53;;;7.07;;
21046;SDS011;10682;50.874;3.656;2023-04-07T02:50:44;17.77;;;7.03;;
21046;SDS011;10682;50.874;3.656;2023-04-07T02:53:11;12.10;;;6.90;;
21046;SDS011;10682;50.874;3.656;2023-04-07T02:55:38;15.33;;;8.00;;
21046;SDS011;10682;50.874;3.656;2023-04-07T02:58:05;18.07;;;8.50;;
21046;SDS011;10682;50.874;3.656;2023-04-07T03:00:32;16.10;;;8.97;;
21046;SDS011;10682;50.874;3.656;2023-04-07T03:03:00;20.27;;;9.37;;
21046;SDS011;10682;50.874;3.656;2023-04-07T03:05:27;17.17;;;9.63;;
21046;SDS011;10682;50.874;3.656;2023-04-07T03:07:54;17.40;;;9.80;;
21046;SDS011;10682;50.874;3.656;2023-04-07T03:10:21;15.33;;;9.63;;
21046;SDS011;10682;50.874;3.656;2023-04-07T03:12:48;16.57;;;9.23;;
21046;SDS011;10682;50.874;3.656;2023-04-07T03:15:15;23.03;;;9.80;;
21046;SDS011;10682;50.874;3.656;2023-04-07T03:17:44;16.17;;;9.60;;
21046;SDS011;10682;50.874;3.656;2023-04-07T03:20:11;20.47;;;10.20;;
21046;SDS011;10682;50.874;3.656;2023-04-07T03:22:38;18.20;;;9.93;;
21046;SDS011;10682;50.874;3.656;2023-04-07T03:25:06;17.53;;;9.87;;
21046;SDS011;10682;50.874;3.656;2023-04-07T03:27:34;17.63;;;10.27;;
21046;SDS011;10682;50.874;3.656;2023-04-07T03:30:01;18.77;;;10.17;;
21046;SDS011;10682;50.874;3.656;2023-04-07T03:32:29;18.00;;;10.07;;
21046;SDS011;10682;50.874;3.656;2023-04-07T03:34:56;17.93;;;10.07;;
21046;SDS011;10682;50.874;3.656;2023-04-07T03:37:23;19.03;;;10.77;;
21046;SDS011;10682;50.874;3.656;2023-04-07T03:39:51;18.30;;;10.60;;
21046;SDS011;10682;50.874;3.656;2023-04-07T03:42:18;24.83;;;11.33;;
21046;SDS011;10682;50.874;3.656;2023-04-07T03:44:45;19.97;;;10.87;;
21046;SDS011;10682;50.874;3.656;2023-04-07T03:47:12;19.80;;;10.97;;
21046;SDS011;10682;50.874;3.656;2023-04-07T03:49:39;21.83;;;10.57;;
21046;SDS011;10682;50.874;3.656;2023-04-07T03:52:06;15.53;;;10.10;;
21046;SDS011;10682;50.874;3.656;2023-04-07T03:54:33;15.53;;;10.13;;
21046;SDS011;10682;50.874;3.656;2023-04-07T03:57:00;22.30;;;10.73;;
21046;SDS011;10682;50.874;3.656;2023-04-07T03:59:28;19.93;;;9.83;;
21046;SDS011;10682;50.874;3.656;2023-04-07T04:01:55;22.00;;;10.13;;
21046;SDS011;10682;50.874;3.656;2023-04-07T04:04:22;16.63;;;9.73;;
21046;SDS011;10682;50.874;3.656;2023-04-07T04:06:50;19.60;;;9.93;;
21046;SDS011;10682;50.874;3.656;2023-04-07T04:09:17;21.73;;;10.00;;
21046;SDS011;10682;50.874;3.656;2023-04-07T04:11:44;21.37;;;10.13;;
21046;SDS011;10682;50.874;3.656;2023-04-07T04:14:11;20.13;;;9.93;;
21046;SDS011;10682;50.874;3.656;2023-04-07T04:16:38;20.17;;;10.53;;
21046;SDS011;10682;50.874;3.656;2023-04-07T04:19:05;22.13;;;9.93;;
21046;SDS011;10682;50.874;3.656;2023-04-07T04:21:32;16.90;;;9.40;;
21046;SDS011;10682;50.874;3.656;2023-04-07T04:23:59;16.77;;;9.60;;
21046;SDS011;10682;50.874;3.656;2023-04-07T04:26:26;20.17;;;10.20;;
21046;SDS011;10682;50.874;3.656;2023-04-07T04:28:55;22.27;;;10.73;;
21046;SDS011;10682;50.874;3.656;2023-04-07T04:31:22;18.50;;;9.53;;
21046;SDS011;10682;50.874;3.656;2023-04-07T04:33:49;19.37;;;11.50;;
21046;SDS011;10682;50.874;3.656;2023-04-07T04:36:16;26.83;;;11.37;;
21046;SDS011;10682;50.874;3.656;2023-04-07T04:38:43;23.83;;;11.57;;
21046;SDS011;10682;50.874;3.656;2023-04-07T04:41:10;22.37;;;11.60;;
21046;SDS011;10682;50.874;3.656;2023-04-07T04:43:37;19.13;;;11.00;;
21046;SDS011;10682;50.874;3.656;2023-04-07T04:46:04;19.73;;;10.00;;
21046;SDS011;10682;50.874;3.656;2023-04-07T04:48:31;25.97;;;12.00;;
21046;SDS011;10682;50.874;3.656;2023-04-07T04:50:58;21.20;;;10.67;;
21046;SDS011;10682;50.874;3.656;2023-04-07T04:53:25;21.70;;;10.73;;
21046;SDS011;10682;50.874;3.656;2023-04-07T04:55:52;25.03;;;11.53;;
21046;SDS011;10682;50.874;3.656;2023-04-07T04:58:19;19.50;;;10.53;;
21046;SDS011;10682;50.874;3.656;2023-04-07T05:00:47;20.87;;;10.93;;
21046;SDS011;10682;50.874;3.656;2023-04-07T05:03:14;25.00;;;12.20;;
21046;SDS011;10682;50.874;3.656;2023-04-07T05:05:41;24.77;;;12.40;;
21046;SDS011;10682;50.874;3.656;2023-04-07T05:08:09;20.87;;;11.20;;
21046;SDS011;10682;50.874;3.656;2023-04-07T05:10:37;25.43;;;12.27;;
21046;SDS011;10682;50.874;3.656;2023-04-07T05:13:05;21.37;;;11.77;;
21046;SDS011;10682;50.874;3.656;2023-04-07T05:15:32;26.10;;;12.20;;
21046;SDS011;10682;50.874;3.656;2023-04-07T05:17:59;21.93;;;12.40;;
21046;SDS011;10682;50.874;3.656;2023-04-07T05:20:26;22.73;;;12.53;;
21046;SDS011;10682;50.874;3.656;2023-04-07T05:22:53;29.03;;;13.70;;
21046;SDS011;10682;50.874;3.656;2023-04-07T05:25:20;23.10;;;12.50;;
21046;SDS011;10682;50.874;3.656;2023-04-07T05:27:47;22.83;;;12.93;;
21046;SDS011;10682;50.874;3.656;2023-04-07T05:30:14;24.30;;;12.83;;
21046;SDS011;10682;50.874;3.656;2023-04-07T05:32:41;24.73;;;13.67;;
21046;SDS011;10682;50.874;3.656;2023-04-07T05:35:09;25.17;;;13.30;;
21046;SDS011;10682;50.874;3.656;2023-04-07T05:37:36;29.27;;;13.50;;
21046;SDS011;10682;50.874;3.656;2023-04-07T05:40:03;31.23;;;14.40;;
21046;SDS011;10682;50.874;3.656;2023-04-07T05:42:30;28.50;;;14.20;;
21046;SDS011;10682;50.874;3.656;2023-04-07T05:44:57;26.37;;;13.77;;
21046;SDS011;10682;50.874;3.656;2023-04-07T05:47:24;30.83;;;14.90;;
21046;SDS011;10682;50.874;3.656;2023-04-07T05:49:51;24.87;;;14.37;;
21046;SDS011;10682;50.874;3.656;2023-04-07T05:52:19;26.07;;;14.37;;
21046;SDS011;10682;50.874;3.656;2023-04-07T05:54:45;31.73;;;14.63;;
21046;SDS011;10682;50.874;3.656;2023-04-07T05:57:13;25.27;;;13.70;;
21046;SDS011;10682;50.874;3.656;2023-04-07T05:59:40;31.37;;;14.90;;
21046;SDS011;10682;50.874;3.656;2023-04-07T06:02:07;31.00;;;15.33;;
21046;SDS011;10682;50.874;3.656;2023-04-07T06:04:34;26.27;;;15.03;;
21046;SDS011;10682;50.874;3.656;2023-04-07T06:07:02;29.27;;;14.90;;
21046;SDS011;10682;50.874;3.656;2023-04-07T06:09:29;31.57;;;15.23;;
21046;SDS011;10682;50.874;3.656;2023-04-07T06:11:56;32.33;;;15.23;;
21046;SDS011;10682;50.874;3.656;2023-04-07T06:14:24;27.20;;;15.10;;
21046;SDS011;10682;50.874;3.656;2023-04-07T06:16:51;28.43;;;14.17;;
21046;SDS011;10682;50.874;3.656;2023-04-07T06:19:18;25.60;;;14.70;;
21046;SDS011;10682;50.874;3.656;2023-04-07T06:21:45;28.37;;;14.50;;
21046;SDS011;10682;50.874;3.656;2023-04-07T06:24:12;26.10;;;14.47;;
21046;SDS011;10682;50.874;3.656;2023-04-07T06:26:39;33.27;;;15.07;;
21046;SDS011;10682;50.874;3.656;2023-04-07T06:29:06;26.80;;;14.10;;
21046;SDS011;10682;50.874;3.656;2023-04-07T06:31:33;26.73;;;14.10;;
21046;SDS011;10682;50.874;3.656;2023-04-07T06:34:00;24.60;;;13.40;;
21046;SDS011;10682;50.874;3.656;2023-04-07T06:36:27;28.47;;;13.43;;
21046;SDS011;10682;50.874;3.656;2023-04-07T06:38:55;28.10;;;12.83;;
21046;SDS011;10682;50.874;3.656;2023-04-07T06:41:22;23.53;;;12.63;;
21046;SDS011;10682;50.874;3.656;2023-04-07T06:43:49;21.63;;;11.70;;
21046;SDS011;10682;50.874;3.656;2023-04-07T06:46:17;21.63;;;12.03;;
21046;SDS011;10682;50.874;3.656;2023-04-07T06:48:44;22.17;;;11.83;;
21046;SDS011;10682;50.874;3.656;2023-04-07T06:51:11;20.63;;;11.93;;
21046;SDS011;10682;50.874;3.656;2023-04-07T06:53:39;20.80;;;10.87;;
21046;SDS011;10682;50.874;3.656;2023-04-07T06:56:10;25.40;;;11.60;;
21046;SDS011;10682;50.874;3.656;2023-04-07T06:58:37;21.90;;;10.50;;
21046;SDS011;10682;50.874;3.656;2023-04-07T07:01:04;23.57;;;10.37;;
21046;SDS011;10682;50.874;3.656;2023-04-07T07:03:32;19.13;;;10.00;;
21046;SDS011;10682;50.874;3.656;2023-04-07T07:06:00;20.17;;;9.70;;
21046;SDS011;10682;50.874;3.656;2023-04-07T07:08:27;27.20;;;10.43;;
21046;SDS011;10682;50.874;3.656;2023-04-07T07:10:55;22.60;;;9.93;;
21046;SDS011;10682;50.874;3.656;2023-04-07T07:13:23;19.60;;;10.57;;
21046;SDS011;10682;50.874;3.656;2023-04-07T07:15:51;18.33;;;10.13;;
21046;SDS011;10682;50.874;3.656;2023-04-07T07:18:18;18.80;;;10.23;;
21046;SDS011;10682;50.874;3.656;2023-04-07T07:20:46;24.20;;;10.60;;
21046;SDS011;10682;50.874;3.656;2023-04-07T07:23:13;21.77;;;10.77;;
21046;SDS011;10682;50.874;3.656;2023-04-07T07:25:40;21.50;;;9.67;;
21046;SDS011;10682;50.874;3.656;2023-04-07T07:28:06;21.67;;;10.47;;
21046;SDS011;10682;50.874;3.656;2023-04-07T07:30:34;22.77;;;10.00;;
21046;SDS011;10682;50.874;3.656;2023-04-07T07:33:04;24.17;;;9.07;;
21046;SDS011;10682;50.874;3.656;2023-04-07T07:35:31;18.97;;;8.57;;
21046;SDS011;10682;50.874;3.656;2023-04-07T07:37:59;14.40;;;8.13;;
21046;SDS011;10682;50.874;3.656;2023-04-07T07:40:26;14.67;;;7.13;;
21046;SDS011;10682;50.874;3.656;2023-04-07T07:42:53;11.97;;;5.80;;
21046;SDS011;10682;50.874;3.656;2023-04-07T07:45:21;15.87;;;5.73;;
21046;SDS011;10682;50.874;3.656;2023-04-07T07:47:48;13.03;;;5.20;;
21046;SDS011;10682;50.874;3.656;2023-04-07T07:50:15;8.23;;;4.53;;
21046;SDS011;10682;50.874;3.656;2023-04-07T07:52:42;11.93;;;4.87;;
21046;SDS011;10682;50.874;3.656;2023-04-07T07:55:09;10.47;;;4.40;;
21046;SDS011;10682;50.874;3.656;2023-04-07T07:57:36;9.63;;;4.53;;
21046;SDS011;10682;50.874;3.656;2023-04-07T08:00:03;9.80;;;4.70;;
21046;SDS011;10682;50.874;3.656;2023-04-07T08:02:31;8.37;;;4.50;;
21046;SDS011;10682;50.874;3.656;2023-04-07T08:04:59;12.50;;;4.43;;
21046;SDS011;10682;50.874;3.656;2023-04-07T08:07:26;12.43;;;4.53;;
21046;SDS011;10682;50.874;3.656;2023-04-07T08:09:53;10.20;;;4.80;;
21046;SDS011;10682;50.874;3.656;2023-04-07T08:12:20;12.23;;;5.10;;
21046;SDS011;10682;50.874;3.656;2023-04-07T08:14:47;8.97;;;4.73;;
21046;SDS011;10682;50.874;3.656;2023-04-07T08:17:15;10.43;;;5.03;;
21046;SDS011;10682;50.874;3.656;2023-04-07T08:19:42;9.27;;;4.80;;
21046;SDS011;10682;50.874;3.656;2023-04-07T08:22:09;10.93;;;5.00;;
21046;SDS011;10682;50.874;3.656;2023-04-07T08:24:36;16.03;;;5.50;;
21046;SDS011;10682;50.874;3.656;2023-04-07T08:27:03;14.83;;;5.70;;
21046;SDS011;10682;50.874;3.656;2023-04-07T08:29:30;12.77;;;5.57;;
21046;SDS011;10682;50.874;3.656;2023-04-07T08:31:57;11.00;;;4.87;;
21046;SDS011;10682;50.874;3.656;2023-04-07T08:34:24;12.60;;;5.33;;
21046;SDS011;10682;50.874;3.656;2023-04-07T08:36:51;14.53;;;5.43;;
21046;SDS011;10682;50.874;3.656;2023-04-07T08:39:18;13.73;;;5.33;;
21046;SDS011;10682;50.874;3.656;2023-04-07T08:41:45;12.93;;;5.27;;
21046;SDS011;10682;50.874;3.656;2023-04-07T08:44:14;14.00;;;5.10;;
21046;SDS011;10682;50.874;3.656;2023-04-07T08:46:41;11.50;;;4.63;;
21046;SDS011;10682;50.874;3.656;2023-04-07T08:49:10;9.87;;;4.20;;
21046;SDS011;10682;50.874;3.656;2023-04-07T08:51:44;10.80;;;4.33;;
21046;SDS011;10682;50.874;3.656;2023-04-07T08:54:16;11.57;;;4.70;;
21046;SDS011;10682;50.874;3.656;2023-04-07T08:56:44;9.40;;;4.17;;
21046;SDS011;10682;50.874;3.656;2023-04-07T08:59:12;8.07;;;4.13;;
21046;SDS011;10682;50.874;3.656;2023-04-07T09:01:41;16.50;;;4.83;;
21046;SDS011;10682;50.874;3.656;2023-04-07T09:04:08;10.70;;;3.73;;
21046;SDS011;10682;50.874;3.656;2023-04-07T09:06:36;9.93;;;3.67;;
21046;SDS011;10682;50.874;3.656;2023-04-07T09:09:04;9.97;;;3.80;;
21046;SDS011;10682;50.874;3.656;2023-04-07T09:11:33;8.90;;;3.30;;
21046;SDS011;10682;50.874;3.656;2023-04-07T09:14:04;8.93;;;3.50;;
21046;SDS011;10682;50.874;3.656;2023-04-07T09:16:31;10.83;;;4.10;;
21046;SDS011;10682;50.874;3.656;2023-04-07T09:18:58;8.87;;;3.27;;
21046;SDS011;10682;50.874;3.656;2023-04-07T09:21:25;7.83;;;2.43;;
21046;SDS011;10682;50.874;3.656;2023-04-07T09:24:22;5.73;;;3.10;;
21046;SDS011;10682;50.874;3.656;2023-04-07T09:27:07;5.20;;;2.53;;
21046;SDS011;10682;50.874;3.656;2023-04-07T09:29:43;6.87;;;2.63;;
21046;SDS011;10682;50.874;3.656;2023-04-07T09:32:20;8.87;;;3.20;;
21046;SDS011;10682;50.874;3.656;2023-04-07T09:35:06;11.03;;;2.97;;
21046;SDS011;10682;50.874;3.656;2023-04-07T09:37:34;9.77;;;3.53;;
21046;SDS011;10682;50.874;3.656;2023-04-07T09:40:02;9.43;;;3.20;;
21046;SDS011;10682;50.874;3.656;2023-04-07T09:42:31;9.27;;;3.20;;
21046;SDS011;10682;50.874;3.656;2023-04-07T09:44:59;4.97;;;2.50;;
21046;SDS011;10682;50.874;3.656;2023-04-07T09:47:28;8.90;;;2.10;;
21046;SDS011;10682;50.874;3.656;2023-04-07T09:49:58;5.60;;;1.90;;
21046;SDS011;10682;50.874;3.656;2023-04-07T09:52:47;5.77;;;2.10;;
21046;SDS011;10682;50.874;3.656;2023-04-07T09:55:20;6.50;;;2.30;;
21046;SDS011;10682;50.874;3.656;2023-04-07T09:57:51;6.33;;;2.40;;
21046;SDS011;10682;50.874;3.656;2023-04-07T10:00:20;6.23;;;2.30;;
21046;SDS011;10682;50.874;3.656;2023-04-07T10:02:48;8.43;;;2.17;;
21046;SDS011;10682;50.874;3.656;2023-04-07T10:05:16;10.17;;;2.20;;
21046;SDS011;10682;50.874;3.656;2023-04-07T10:07:46;7.53;;;2.10;;
21046;SDS011;10682;50.874;3.656;2023-04-07T10:10:13;9.38;;;1.88;;
21046;SDS011;10682;50.874;3.656;2023-04-07T10:12:41;8.37;;;1.70;;
21046;SDS011;10682;50.874;3.656;2023-04-07T10:15:12;13.27;;;2.70;;
21046;SDS011;10682;50.874;3.656;2023-04-07T10:17:47;8.60;;;2.13;;
21046;SDS011;10682;50.874;3.656;2023-04-07T10:20:16;9.43;;;1.90;;
21046;SDS011;10682;50.874;3.656;2023-04-07T10:22:50;9.60;;;2.20;;
21046;SDS011;10682;50.874;3.656;2023-04-07T10:25:20;8.13;;;1.87;;
21046;SDS011;10682;50.874;3.656;2023-04-07T10:30:26;6.13;;;1.77;;
21046;SDS011;10682;50.874;3.656;2023-04-07T10:32:56;4.53;;;1.27;;
21046;SDS011;10682;50.874;3.656;2023-04-07T10:35:24;8.93;;;1.33;;
21046;SDS011;10682;50.874;3.656;2023-04-07T10:40:34;7.07;;;1.40;;
21046;SDS011;10682;50.874;3.656;2023-04-07T10:43:03;7.43;;;1.40;;
21046;SDS011;10682;50.874;3.656;2023-04-07T10:48:14;9.90;;;1.45;;
21046;SDS011;10682;50.874;3.656;2023-04-07T10:50:44;7.25;;;1.40;;
21046;SDS011;10682;50.874;3.656;2023-04-07T10:53:12;5.32;;;1.30;;
21046;SDS011;10682;50.874;3.656;2023-04-07T10:55:41;6.43;;;1.40;;
21046;SDS011;10682;50.874;3.656;2023-04-07T11:01:14;4.82;;;1.30;;
21046;SDS011;10682;50.874;3.656;2023-04-07T11:03:30;9.40;;;1.40;;
21046;SDS011;10682;50.874;3.656;2023-04-07T11:06:03;6.25;;;1.30;;
21046;SDS011;10682;50.874;3.656;2023-04-07T11:08:42;5.15;;;1.17;;
21046;SDS011;10682;50.874;3.656;2023-04-07T11:14:05;7.47;;;1.40;;
21046;SDS011;10682;50.874;3.656;2023-04-07T11:16:36;10.90;;;1.73;;
21046;SDS011;10682;50.874;3.656;2023-04-07T11:19:08;5.03;;;1.53;;
21046;SDS011;10682;50.874;3.656;2023-04-07T11:21:35;8.00;;;1.30;;
21046;SDS011;10682;50.874;3.656;2023-04-07T11:24:03;6.27;;;1.70;;
21046;SDS011;10682;50.874;3.656;2023-04-07T11:26:35;5.10;;;1.50;;
21046;SDS011;10682;50.874;3.656;2023-04-07T11:29:13;6.67;;;1.83;;
21046;SDS011;10682;50.874;3.656;2023-04-07T11:31:45;6.13;;;1.20;;
21046;SDS011;10682;50.874;3.656;2023-04-07T11:34:15;2.40;;;1.10;;
21046;SDS011;10682;50.874;3.656;2023-04-07T11:40:02;6.77;;;1.10;;
21046;SDS011;10682;50.874;3.656;2023-04-07T11:42:47;3.23;;;0.90;;
21046;SDS011;10682;50.874;3.656;2023-04-07T11:45:18;8.00;;;1.27;;
21046;SDS011;10682;50.874;3.656;2023-04-07T11:47:47;7.80;;;1.83;;
21046;SDS011;10682;50.874;3.656;2023-04-07T11:54:00;5.95;;;1.48;;
21046;SDS011;10682;50.874;3.656;2023-04-07T11:56:27;7.80;;;1.35;;
21046;SDS011;10682;50.874;3.656;2023-04-07T11:58:55;5.63;;;1.30;;
21046;SDS011;10682;50.874;3.656;2023-04-07T12:01:23;7.35;;;1.52;;
21046;SDS011;10682;50.874;3.656;2023-04-07T12:04:11;3.17;;;1.17;;
21046;SDS011;10682;50.874;3.656;2023-04-07T12:06:46;2.45;;;1.20;;
21046;SDS011;10682;50.874;3.656;2023-04-07T12:12:02;6.07;;;1.48;;
21046;SDS011;10682;50.874;3.656;2023-04-07T12:14:44;4.60;;;1.27;;
21046;SDS011;10682;50.874;3.656;2023-04-07T12:17:20;3.13;;;1.40;;
21046;SDS011;10682;50.874;3.656;2023-04-07T12:19:49;6.93;;;1.40;;
21046;SDS011;10682;50.874;3.656;2023-04-07T12:22:16;4.73;;;1.20;;
21046;SDS011;10682;50.874;3.656;2023-04-07T12:24:43;4.63;;;1.00;;
21046;SDS011;10682;50.874;3.656;2023-04-07T12:27:16;3.70;;;1.10;;
21046;SDS011;10682;50.874;3.656;2023-04-07T12:30:04;4.70;;;1.30;;
21046;SDS011;10682;50.874;3.656;2023-04-07T12:32:43;5.47;;;1.43;;
21046;SDS011;10682;50.874;3.656;2023-04-07T12:36:05;3.80;;;1.30;;
21046;SDS011;10682;50.874;3.656;2023-04-07T12:38:53;8.60;;;1.60;;
21046;SDS011;10682;50.874;3.656;2023-04-07T12:41:21;6.37;;;1.67;;
21046;SDS011;10682;50.874;3.656;2023-04-07T12:43:52;6.60;;;1.40;;
21046;SDS011;10682;50.874;3.656;2023-04-07T12:46:22;6.90;;;1.77;;
21046;SDS011;10682;50.874;3.656;2023-04-07T12:48:50;11.67;;;1.90;;
21046;SDS011;10682;50.874;3.656;2023-04-07T12:51:17;8.20;;;1.53;;
21046;SDS011;10682;50.874;3.656;2023-04-07T12:53:48;9.03;;;1.63;;
21046;SDS011;10682;50.874;3.656;2023-04-07T12:56:16;6.20;;;1.50;;
21046;SDS011;10682;50.874;3.656;2023-04-07T12:58:48;11.87;;;1.83;;
21046;SDS011;10682;50.874;3.656;2023-04-07T13:01:24;9.70;;;1.83;;
21046;SDS011;10682;50.874;3.656;2023-04-07T13:03:54;7.87;;;1.47;;
21046;SDS011;10682;50.874;3.656;2023-04-07T13:06:33;5.87;;;1.30;;
21046;SDS011;10682;50.874;3.656;2023-04-07T13:09:00;7.30;;;1.70;;
21046;SDS011;10682;50.874;3.656;2023-04-07T13:11:27;13.83;;;1.80;;
21046;SDS011;10682;50.874;3.656;2023-04-07T13:13:54;8.47;;;1.83;;
21046;SDS011;10682;50.874;3.656;2023-04-07T13:16:25;6.63;;;1.87;;
21046;SDS011;10682;50.874;3.656;2023-04-07T13:18:57;9.17;;;2.00;;
21046;SDS011;10682;50.874;3.656;2023-04-07T13:21:25;10.47;;;1.83;;
21046;SDS011;10682;50.874;3.656;2023-04-07T13:24:30;11.33;;;2.23;;
21046;SDS011;10682;50.874;3.656;2023-04-07T13:27:17;9.33;;;1.90;;
21046;SDS011;10682;50.874;3.656;2023-04-07T13:29:47;8.90;;;1.80;;
21046;SDS011;10682;50.874;3.656;2023-04-07T13:32:29;8.43;;;1.90;;
21046;SDS011;10682;50.874;3.656;2023-04-07T13:35:01;5.13;;;1.57;;
21046;SDS011;10682;50.874;3.656;2023-04-07T13:37:38;10.00;;;2.03;;
21046;SDS011;10682;50.874;3.656;2023-04-07T13:40:41;6.90;;;1.60;;
21046;SDS011;10682;50.874;3.656;2023-04-07T13:43:26;10.37;;;1.80;;
21046;SDS011;10682;50.874;3.656;2023-04-07T13:48:57;9.60;;;1.80;;
21046;SDS011;10682;50.874;3.656;2023-04-07T13:51:27;9.37;;;2.10;;
21046;SDS011;10682;50.874;3.656;2023-04-07T13:53:58;12.17;;;2.00;;
21046;SDS011;10682;50.874;3.656;2023-04-07T13:56:25;11.37;;;2.13;;
21046;SDS011;10682;50.874;3.656;2023-04-07T13:58:56;12.40;;;2.40;;
21046;SDS011;10682;50.874;3.656;2023-04-07T14:01:40;9.27;;;2.27;;
21046;SDS011;10682;50.874;3.656;2023-04-07T14:04:24;10.43;;;1.90;;
21046;SDS011;10682;50.874;3.656;2023-04-07T14:06:56;5.17;;;1.80;;
21046;SDS011;10682;50.874;3.656;2023-04-07T14:09:29;4.97;;;1.60;;
21046;SDS011;10682;50.874;3.656;2023-04-07T14:11:59;5.97;;;1.50;;
21046;SDS011;10682;50.874;3.656;2023-04-07T14:14:26;12.40;;;2.50;;
21046;SDS011;10682;50.874;3.656;2023-04-07T14:16:53;9.73;;;2.37;;
21046;SDS011;10682;50.874;3.656;2023-04-07T14:19:25;5.57;;;1.93;;
21046;SDS011;10682;50.874;3.656;2023-04-07T14:21:52;5.17;;;2.03;;
21046;SDS011;10682;50.874;3.656;2023-04-07T14:24:19;7.10;;;1.80;;
21046;SDS011;10682;50.874;3.656;2023-04-07T14:26:47;8.07;;;1.80;;
21046;SDS011;10682;50.874;3.656;2023-04-07T14:29:16;5.53;;;1.30;;
21046;SDS011;10682;50.874;3.656;2023-04-07T14:31:43;4.57;;;1.50;;
21046;SDS011;10682;50.874;3.656;2023-04-07T14:34:11;5.87;;;1.43;;
21046;SDS011;10682;50.874;3.656;2023-04-07T14:36:38;5.87;;;1.40;;
21046;SDS011;10682;50.874;3.656;2023-04-07T14:39:05;5.77;;;1.57;;
21046;SDS011;10682;50.874;3.656;2023-04-07T14:41:32;3.83;;;1.40;;
21046;SDS011;10682;50.874;3.656;2023-04-07T14:43:59;4.83;;;1.50;;
21046;SDS011;10682;50.874;3.656;2023-04-07T14:46:26;5.77;;;1.60;;
21046;SDS011;10682;50.874;3.656;2023-04-07T14:48:54;4.87;;;1.60;;
21046;SDS011;10682;50.874;3.656;2023-04-07T14:51:23;5.13;;;1.97;;
21046;SDS011;10682;50.874;3.656;2023-04-07T14:53:50;4.07;;;1.50;;
21046;SDS011;10682;50.874;3.656;2023-04-07T14:56:21;3.67;;;1.00;;
21046;SDS011;10682;50.874;3.656;2023-04-07T14:58:50;4.23;;;1.67;;
21046;SDS011;10682;50.874;3.656;2023-04-07T15:01:18;8.23;;;1.80;;
21046;SDS011;10682;50.874;3.656;2023-04-07T15:03:45;5.83;;;1.50;;
21046;SDS011;10682;50.874;3.656;2023-04-07T15:06:13;10.90;;;1.90;;
21046;SDS011;10682;50.874;3.656;2023-04-07T15:08:41;11.73;;;2.00;;
21046;SDS011;10682;50.874;3.656;2023-04-07T15:11:08;5.00;;;1.97;;
21046;SDS011;10682;50.874;3.656;2023-04-07T15:13:36;5.27;;;1.70;;
21046;SDS011;10682;50.874;3.656;2023-04-07T15:16:09;6.03;;;1.57;;
21046;SDS011;10682;50.874;3.656;2023-04-07T15:18:40;5.60;;;2.00;;
21046;SDS011;10682;50.874;3.656;2023-04-07T15:21:10;5.87;;;2.17;;
21046;SDS011;10682;50.874;3.656;2023-04-07T15:23:37;7.23;;;2.13;;
21046;SDS011;10682;50.874;3.656;2023-04-07T15:26:07;4.93;;;2.07;;
21046;SDS011;10682;50.874;3.656;2023-04-07T15:28:35;4.70;;;1.90;;